createdAt,value
2023-04-02T00:09:46.868Z,45.08
2023-04-02T00:19:52.542Z,45.20
2023-04-02T00:29:55.562Z,45.23
2023-04-02T00:40:16.837Z,45.21
2023-04-02T00:50:26.486Z,45.23
2023-04-02T01:00:29.212Z,45.31
2023-04-02T01:10:37.040Z,45.33
2023-04-02T01:21:06.398Z,45.28
2023-04-02T01:31:07.947Z,45.40
2023-04-02T01:41:18.226Z,45.41
2023-04-02T01:51:29.028Z,45.31
2023-04-02T02:01:36.335Z,45.22
2023-04-02T02:11:37.789Z,45.15
2023-04-02T02:21:49.751Z,45.09
2023-04-02T02:31:52.895Z,45.10
2023-04-02T02:41:57.754Z,45.09
2023-04-02T02:52:08.291Z,45.10
2023-04-02T03:02:09.944Z,44.98
2023-04-02T03:12:36.470Z,45.25
2023-04-02T03:22:59.785Z,45.02
2023-04-02T03:33:12.821Z,44.93
2023-04-02T03:43:21.973Z,44.87
2023-04-02T03:53:24.645Z,45.04
2023-04-02T04:03:45.099Z,45.19
2023-04-02T04:13:50.209Z,45.21
2023-04-02T04:23:51.774Z,44.71
2023-04-02T04:33:54.901Z,44.16
2023-04-02T04:44:17.854Z,43.52
2023-04-02T04:54:20.062Z,43.07
2023-04-02T05:04:27.616Z,42.86
2023-04-02T05:14:33.804Z,42.39
2023-04-02T05:24:47.345Z,42.33
2023-04-02T05:34:51.541Z,42.21
2023-04-02T05:45:20.314Z,42.29
2023-04-02T05:56:05.513Z,42.40
2023-04-02T06:06:14.734Z,42.32
2023-04-02T06:16:16.513Z,42.39
2023-04-02T06:26:33.047Z,42.20
2023-04-02T06:36:34.810Z,42.07
2023-04-02T06:46:52.523Z,41.79
2023-04-02T06:56:56.360Z,41.84
2023-04-02T07:06:57.924Z,41.78
2023-04-02T07:16:59.491Z,41.68
2023-04-02T07:27:00.955Z,41.48
2023-04-02T07:37:02.594Z,41.51
2023-04-02T07:47:04.284Z,41.37
2023-04-02T07:57:06.187Z,41.25
2023-04-02T08:07:07.843Z,41.14
2023-04-02T08:17:09.437Z,41.12
2023-04-02T08:27:13.721Z,40.92
2023-04-02T08:37:15.511Z,40.69
2023-04-02T08:47:17.408Z,40.80
2023-04-02T08:57:25.026Z,40.70
2023-04-02T09:07:26.965Z,40.46
2023-04-02T09:17:30.023Z,40.34
2023-04-02T09:27:34.298Z,40.45
2023-04-02T09:37:37.390Z,40.37
2023-04-02T09:47:40.268Z,40.30
2023-04-02T09:57:43.778Z,40.27
2023-04-02T10:07:49.206Z,40.07
2023-04-02T10:17:57.653Z,39.92
2023-04-02T10:28:17.670Z,39.95
2023-04-02T10:38:38.682Z,39.80
2023-04-02T10:48:52.439Z,39.59
2023-04-02T10:58:57.467Z,39.60
2023-04-02T11:09:01.195Z,39.33
2023-04-02T11:19:14.819Z,39.25
2023-04-02T11:29:21.614Z,39.38
2023-04-02T11:39:45.797Z,39.17
2023-04-02T11:50:19.700Z,39.23
2023-04-02T12:00:27.363Z,39.22
2023-04-02T12:10:32.602Z,39.06
2023-04-02T12:20:34.406Z,38.90
2023-04-02T12:30:37.247Z,38.80
2023-04-02T12:40:38.864Z,38.77
2023-04-02T12:50:41.664Z,38.78
2023-04-02T13:00:43.266Z,38.92
2023-04-02T13:10:44.774Z,38.80
2023-04-02T13:21:05.717Z,38.52
2023-04-02T13:31:17.731Z,38.74
2023-04-02T13:41:27.286Z,38.61
2023-04-02T13:51:38.964Z,38.63
2023-04-02T14:01:41.431Z,38.33
2023-04-02T14:12:15.047Z,38.61
2023-04-02T14:22:26.643Z,38.60
2023-04-02T14:32:55.526Z,38.80
2023-04-02T14:43:08.190Z,38.92
2023-04-02T14:53:15.715Z,38.88
2023-04-02T15:03:21.961Z,39.07
2023-04-02T15:13:28.461Z,39.06
2023-04-02T15:24:02.076Z,39.19
2023-04-02T15:34:06.110Z,39.17
2023-04-02T15:44:10.895Z,39.23
2023-04-02T15:54:30.980Z,39.06
2023-04-02T16:04:53.363Z,39.07
2023-04-02T16:14:55.635Z,39.08
2023-04-02T16:25:01.633Z,39.14
2023-04-02T16:45:47.901Z,39.12
2023-04-02T16:55:49.312Z,39.02
2023-04-02T17:05:55.858Z,39.24
2023-04-02T17:16:11.929Z,39.08
2023-04-02T17:26:13.384Z,39.21
2023-04-02T17:36:35.173Z,39.18
2023-04-02T17:47:18.395Z,39.26
2023-04-02T17:57:42.496Z,39.38
2023-04-02T18:07:49.171Z,39.26
2023-04-02T18:17:54.013Z,39.30
2023-04-02T18:28:08.586Z,39.27
2023-04-02T18:38:19.204Z,39.37
2023-04-02T18:48:48.158Z,39.32
2023-04-02T18:58:56.686Z,39.48
2023-04-02T19:09:03.638Z,39.47
2023-04-02T19:19:26.966Z,39.67
2023-04-02T19:29:50.224Z,39.61
2023-04-02T19:40:19.425Z,39.56
2023-04-02T19:50:21.140Z,39.61
2023-04-02T20:00:22.553Z,39.71
2023-04-02T20:10:24.243Z,39.76
2023-04-02T20:20:25.975Z,39.78
2023-04-02T20:30:27.409Z,39.91
2023-04-02T20:40:29.130Z,39.72
2023-04-02T20:50:30.739Z,40.01
2023-04-02T21:00:32.160Z,39.93
2023-04-02T21:10:33.880Z,40.04
2023-04-02T21:20:35.606Z,40.08
2023-04-02T21:30:37.033Z,40.11
2023-04-02T21:40:38.466Z,40.19
2023-04-02T21:50:39.894Z,40.24
2023-04-02T22:00:41.344Z,40.38
2023-04-02T22:10:42.914Z,40.38
2023-04-02T22:20:45.052Z,40.38
2023-04-02T22:30:46.532Z,40.47
2023-04-02T22:40:48.121Z,40.57
2023-04-02T22:50:50.484Z,40.55
2023-04-02T23:00:51.871Z,40.28
2023-04-02T23:11:05.669Z,39.78
2023-04-02T23:21:07.161Z,39.31
2023-04-02T23:31:11.040Z,39.07
2023-04-02T23:41:14.540Z,38.81
2023-04-02T23:51:16.320Z,38.51
